createdAt,value
2022-09-11T00:00:57.556Z,7.20
2022-09-11T00:03:31.595Z,6.70
2022-09-11T00:06:14.400Z,6.50
2022-09-11T00:08:45.811Z,6.70
2022-09-11T00:13:50.010Z,7.10
2022-09-11T00:16:24.092Z,7.40
2022-09-11T00:18:56.422Z,6.90
2022-09-11T00:21:47.680Z,7.00
2022-09-11T00:24:18.645Z,7.00
2022-09-11T00:26:49.172Z,7.40
2022-09-11T00:29:21.866Z,7.20
2022-09-11T00:31:56.954Z,7.10
2022-09-11T00:34:32.950Z,7.70
2022-09-11T00:37:13.636Z,7.70
2022-09-11T00:39:49.550Z,8.20
2022-09-11T00:42:31.784Z,8.00
2022-09-11T00:45:20.429Z,7.60
2022-09-11T00:48:04.205Z,6.80
2022-09-11T00:50:44.959Z,7.20
2022-09-11T00:53:38.641Z,8.20
2022-09-11T00:56:14.076Z,7.40
2022-09-11T00:58:48.589Z,7.00
2022-09-11T01:01:33.509Z,8.30
2022-09-11T01:04:17.921Z,8.10
2022-09-11T01:07:07.060Z,7.80
2022-09-11T01:09:54.790Z,8.40
2022-09-11T01:12:48.082Z,7.90
2022-09-11T01:15:58.591Z,8.00
2022-09-11T01:19:06.077Z,8.10
2022-09-11T01:22:22.123Z,9.10
2022-09-11T01:25:13.679Z,7.80
2022-09-11T01:28:24.916Z,8.20
2022-09-11T01:31:54.396Z,7.90
2022-09-11T01:34:56.288Z,7.10
2022-09-11T01:38:20.934Z,7.20
2022-09-11T01:41:18.405Z,7.00
2022-09-11T01:44:09.801Z,6.70
2022-09-11T01:47:58.529Z,6.50
2022-09-11T01:51:16.772Z,6.30
2022-09-11T01:54:17.573Z,6.60
2022-09-11T01:57:34.088Z,6.60
2022-09-11T02:01:00.288Z,6.90
2022-09-11T02:04:19.891Z,6.80
2022-09-11T02:07:33.054Z,6.40
2022-09-11T02:10:40.473Z,5.90
2022-09-11T02:14:08.694Z,6.20
2022-09-11T02:17:56.785Z,6.00
2022-09-11T02:25:19.292Z,5.90
2022-09-11T02:29:04.137Z,6.00
2022-09-11T02:32:55.796Z,6.50
2022-09-11T02:36:26.506Z,6.20
2022-09-11T02:40:00.918Z,6.30
2022-09-11T02:43:23.917Z,7.10
2022-09-11T02:46:50.563Z,6.10
2022-09-11T02:50:35.060Z,6.00
2022-09-11T02:54:00.320Z,6.50
2022-09-11T02:57:28.104Z,6.80
2022-09-11T03:04:21.460Z,6.60
2022-09-11T03:10:52.306Z,7.30
2022-09-11T03:14:12.492Z,7.10
2022-09-11T03:17:05.957Z,7.60
2022-09-11T03:20:22.226Z,7.10
2022-09-11T03:23:42.214Z,6.80
2022-09-11T03:26:29.029Z,8.80
2022-09-11T03:29:30.797Z,9.20
2022-09-11T03:32:07.437Z,8.20
2022-09-11T03:35:21.710Z,8.00
2022-09-11T03:38:28.701Z,8.30
2022-09-11T03:41:32.859Z,8.70
2022-09-11T03:44:47.155Z,8.90
2022-09-11T03:47:58.284Z,8.50
2022-09-11T03:50:44.941Z,8.70
2022-09-11T03:53:41.644Z,8.00
2022-09-11T03:56:29.168Z,7.90
2022-09-11T03:59:23.223Z,8.00
2022-09-11T04:02:06.555Z,7.80
2022-09-11T04:05:03.310Z,8.30
2022-09-11T04:08:01.341Z,8.20
2022-09-11T04:11:11.391Z,8.40
2022-09-11T04:14:31.670Z,8.40
2022-09-11T04:17:16.801Z,8.90
2022-09-11T04:23:28.534Z,8.10
2022-09-11T04:26:32.326Z,8.50
2022-09-11T04:29:37.041Z,8.30
2022-09-11T04:32:39.329Z,7.90
2022-09-11T04:35:43.387Z,8.50
2022-09-11T04:38:36.868Z,8.10
2022-09-11T04:41:22.226Z,8.30
2022-09-11T04:48:13.017Z,8.00
2022-09-11T04:51:35.221Z,9.30
2022-09-11T04:54:35.778Z,8.60
2022-09-11T04:57:49.242Z,9.20
2022-09-11T05:00:41.972Z,9.30
2022-09-11T05:03:47.151Z,9.40
2022-09-11T05:06:51.626Z,10.80
2022-09-11T05:09:56.655Z,10.70
2022-09-11T05:12:50.007Z,10.40
2022-09-11T05:15:56.151Z,10.10
2022-09-11T05:19:08.440Z,10.20
2022-09-11T05:21:55.721Z,9.70
2022-09-11T05:24:31.846Z,10.50
2022-09-11T05:27:53.924Z,10.50
2022-09-11T05:31:08.716Z,10.10
2022-09-11T05:37:10.317Z,10.00
2022-09-11T05:40:10.893Z,10.50
2022-09-11T05:43:02.261Z,12.00
2022-09-11T05:45:43.117Z,12.60
2022-09-11T05:48:20.090Z,11.70
2022-09-11T05:50:57.592Z,12.50
2022-09-11T05:53:30.245Z,12.10
2022-09-11T05:56:08.596Z,12.90
2022-09-11T05:58:39.431Z,12.80
2022-09-11T06:01:22.583Z,12.20
2022-09-11T06:03:58.089Z,12.70
2022-09-11T06:09:30.935Z,12.20
2022-09-11T06:12:21.759Z,12.40
2022-09-11T06:15:03.455Z,12.80
2022-09-11T06:17:41.802Z,12.70
2022-09-11T06:20:13.193Z,13.60
2022-09-11T06:22:47.826Z,11.70
2022-09-11T06:25:24.590Z,12.40
2022-09-11T06:28:06.215Z,12.60
2022-09-11T06:30:45.101Z,12.60
2022-09-11T06:33:39.934Z,13.30
2022-09-11T06:36:34.263Z,13.70
2022-09-11T06:39:25.954Z,13.10
2022-09-11T06:41:58.245Z,13.70
2022-09-11T06:44:45.667Z,14.20
2022-09-11T06:47:29.972Z,13.90
2022-09-11T06:50:06.610Z,13.80
2022-09-11T06:55:36.486Z,13.40
2022-09-11T06:58:11.836Z,12.90
2022-09-11T07:00:46.068Z,14.10
2022-09-11T07:03:19.679Z,14.50
2022-09-11T07:05:52.794Z,14.90
2022-09-11T07:08:36.588Z,13.20
2022-09-11T07:11:12.845Z,15.20
2022-09-11T07:13:47.151Z,14.50
2022-09-11T07:16:20.869Z,14.80
2022-09-11T07:18:58.058Z,14.70
2022-09-11T07:21:37.190Z,13.20
2022-09-11T07:24:15.285Z,12.80
2022-09-11T07:26:48.639Z,12.60
2022-09-11T07:29:36.163Z,11.40
2022-09-11T07:32:27.141Z,12.20
2022-09-11T07:35:21.647Z,12.00
2022-09-11T07:38:00.822Z,13.40
2022-09-11T07:40:36.799Z,12.70
2022-09-11T07:45:37.799Z,12.40
2022-09-11T07:48:18.578Z,11.90
2022-09-11T07:51:02.270Z,12.30
2022-09-11T07:53:37.390Z,12.60
2022-09-11T07:56:13.307Z,12.80
2022-09-11T07:58:45.931Z,11.90
2022-09-11T08:01:18.732Z,12.00
2022-09-11T08:03:50.479Z,10.80
2022-09-11T08:06:23.916Z,13.10
2022-09-11T08:11:37.805Z,12.80
2022-09-11T08:14:08.967Z,12.60
2022-09-11T08:16:41.391Z,12.10
2022-09-11T08:19:21.009Z,12.80
2022-09-11T08:21:55.447Z,12.80
2022-09-11T08:24:28.951Z,15.30
2022-09-11T08:27:02.718Z,15.30
2022-09-11T08:29:33.612Z,16.20
2022-09-11T08:32:05.058Z,16.30
2022-09-11T08:34:38.489Z,15.40
2022-09-11T08:37:09.476Z,15.20
2022-09-11T08:39:41.215Z,15.30
2022-09-11T08:44:49.407Z,14.00
2022-09-11T08:47:53.583Z,13.80
2022-09-11T08:50:26.297Z,12.80
2022-09-11T08:53:01.458Z,14.30
2022-09-11T08:55:39.542Z,13.30
2022-09-11T08:58:21.516Z,15.10
2022-09-11T09:03:54.831Z,14.40
2022-09-11T09:06:40.250Z,14.20
2022-09-11T09:09:19.650Z,14.50
2022-09-11T09:11:57.596Z,13.40
2022-09-11T09:14:59.585Z,13.40
2022-09-11T09:17:38.444Z,14.90
2022-09-11T09:20:16.539Z,14.50
2022-09-11T09:22:53.828Z,14.70
2022-09-11T09:25:26.533Z,14.80
2022-09-11T09:28:03.365Z,15.00
2022-09-11T09:30:45.820Z,12.60
2022-09-11T09:33:29.235Z,13.10
2022-09-11T09:36:12.080Z,13.30
2022-09-11T09:38:53.727Z,14.70
2022-09-11T09:41:51.757Z,14.90
2022-09-11T09:44:37.259Z,13.90
2022-09-11T09:47:19.672Z,13.80
2022-09-11T09:49:51.511Z,13.80
2022-09-11T09:52:25.256Z,12.80
2022-09-11T09:55:00.303Z,13.20
2022-09-11T09:57:37.316Z,12.30
2022-09-11T10:00:20.149Z,12.20
2022-09-11T10:02:54.039Z,13.20
2022-09-11T10:05:28.823Z,11.90
2022-09-11T10:08:01.643Z,12.00
2022-09-11T10:10:39.714Z,12.00
2022-09-11T10:13:25.075Z,13.10
2022-09-11T10:15:57.501Z,11.20
2022-09-11T10:18:42.523Z,11.10
2022-09-11T10:21:30.301Z,11.30
2022-09-11T10:24:05.663Z,11.30
2022-09-11T10:26:43.273Z,11.30
2022-09-11T10:29:19.067Z,11.00
2022-09-11T10:32:02.483Z,10.80
2022-09-11T10:34:39.075Z,12.00
2022-09-11T10:37:23.645Z,11.50
2022-09-11T10:40:01.853Z,11.40
2022-09-11T10:42:35.596Z,12.80
2022-09-11T10:45:15.939Z,11.30
2022-09-11T10:47:46.775Z,10.70
2022-09-11T10:50:28.801Z,10.70
2022-09-11T10:53:16.257Z,11.30
2022-09-11T10:55:58.248Z,10.80
2022-09-11T10:58:34.667Z,11.30
2022-09-11T11:01:05.413Z,10.90
2022-09-11T11:03:36.377Z,11.50
2022-09-11T11:06:20.121Z,11.60
2022-09-11T11:09:30.835Z,12.20
2022-09-11T11:12:18.769Z,12.50
2022-09-11T11:15:07.722Z,11.70
2022-09-11T11:17:48.733Z,10.80
2022-09-11T11:23:22.259Z,12.80
2022-09-11T11:26:01.093Z,12.00
2022-09-11T11:28:51.728Z,10.70
2022-09-11T11:31:41.365Z,10.90
2022-09-11T11:34:34.003Z,10.50
2022-09-11T11:37:12.848Z,10.40
2022-09-11T11:39:54.405Z,10.00
2022-09-11T11:42:29.677Z,10.30
2022-09-11T11:45:06.780Z,10.50
2022-09-11T11:47:42.946Z,9.60
2022-09-11T11:50:23.210Z,9.40
2022-09-11T11:53:03.677Z,9.80
2022-09-11T11:55:45.552Z,9.80
2022-09-11T11:58:24.204Z,8.80
2022-09-11T12:01:01.689Z,9.20
2022-09-11T12:03:40.322Z,11.00
2022-09-11T12:06:14.323Z,10.00
2022-09-11T12:08:46.897Z,9.30
2022-09-11T12:11:25.474Z,10.40
2022-09-11T12:13:57.001Z,10.10
2022-09-11T12:16:33.695Z,12.20
2022-09-11T12:19:16.776Z,12.50
2022-09-11T12:22:14.362Z,11.30
2022-09-11T12:24:59.097Z,11.40
2022-09-11T12:27:55.497Z,10.90
2022-09-11T12:30:30.892Z,10.50
2022-09-11T12:33:02.420Z,10.70
2022-09-11T12:35:41.596Z,10.80
2022-09-11T12:38:25.771Z,10.10
2022-09-11T12:41:01.967Z,8.70
2022-09-11T12:43:49.754Z,8.60
2022-09-11T12:46:53.162Z,8.10
2022-09-11T12:49:25.637Z,10.00
2022-09-11T12:51:59.910Z,8.60
2022-09-11T12:54:45.065Z,7.90
2022-09-11T12:57:27.050Z,7.40
2022-09-11T13:00:12.573Z,7.60
2022-09-11T13:02:59.204Z,7.60
2022-09-11T13:05:34.644Z,8.70
2022-09-11T13:08:15.520Z,7.50
2022-09-11T13:10:47.660Z,7.80
2022-09-11T13:13:46.837Z,7.70
2022-09-11T13:16:28.595Z,8.90
2022-09-11T13:19:03.408Z,7.90
2022-09-11T13:21:39.304Z,7.70
2022-09-11T13:27:18.907Z,10.00
2022-09-11T13:29:51.813Z,6.80
2022-09-11T13:32:23.344Z,8.90
2022-09-11T13:35:01.953Z,8.40
2022-09-11T13:37:40.539Z,7.20
2022-09-11T13:40:22.366Z,6.20
2022-09-11T13:42:53.118Z,6.30
2022-09-11T13:47:54.697Z,7.10
2022-09-11T13:50:26.138Z,6.30
2022-09-11T13:52:57.305Z,7.40
2022-09-11T13:55:30.370Z,7.50
2022-09-11T13:58:02.514Z,7.60
2022-09-11T14:00:47.456Z,7.70
2022-09-11T14:03:22.362Z,7.90
2022-09-11T14:05:55.117Z,7.50
2022-09-11T14:08:32.555Z,7.50
2022-09-11T14:11:10.979Z,8.30
2022-09-11T14:13:47.961Z,8.10
2022-09-11T14:16:27.168Z,8.80
2022-09-11T14:19:02.819Z,9.10
2022-09-11T14:21:37.337Z,7.70
2022-09-11T14:24:28.225Z,8.80
2022-09-11T14:26:59.016Z,7.60
2022-09-11T14:29:32.502Z,7.30
2022-09-11T14:32:31.267Z,7.60
2022-09-11T14:35:02.759Z,7.00
2022-09-11T14:37:36.502Z,7.00
2022-09-11T14:40:15.444Z,7.30
2022-09-11T14:42:46.743Z,8.40
2022-09-11T14:45:22.303Z,8.10
2022-09-11T14:47:53.330Z,7.50
2022-09-11T14:50:24.658Z,8.10
2022-09-11T14:52:55.240Z,7.70
2022-09-11T14:55:25.894Z,7.30
2022-09-11T15:00:25.258Z,8.20
2022-09-11T15:02:56.194Z,9.50
2022-09-11T15:05:27.182Z,7.80
2022-09-11T15:08:00.280Z,7.50
2022-09-11T15:10:33.117Z,7.20
2022-09-11T15:13:04.329Z,5.90
2022-09-11T15:15:35.086Z,6.20
2022-09-11T15:18:06.062Z,5.50
2022-09-11T15:20:36.672Z,6.00
2022-09-11T15:23:07.500Z,6.00
2022-09-11T15:25:37.852Z,5.90
2022-09-11T15:28:10.242Z,6.10
2022-09-11T15:30:42.128Z,6.20
2022-09-11T15:33:12.732Z,7.10
2022-09-11T15:38:12.200Z,6.90
2022-09-11T15:40:42.883Z,6.80
2022-09-11T15:45:45.657Z,6.80
2022-09-11T15:48:17.183Z,7.00
2022-09-11T15:50:59.320Z,6.40
2022-09-11T15:53:30.619Z,6.50
2022-09-11T15:56:11.633Z,6.70
2022-09-11T15:58:45.433Z,6.70
2022-09-11T16:01:29.588Z,6.60
2022-09-11T16:04:05.313Z,7.50
2022-09-11T16:06:38.946Z,7.00
2022-09-11T16:09:12.841Z,6.60
2022-09-11T16:11:43.943Z,7.10
2022-09-11T16:14:21.194Z,6.60
2022-09-11T16:16:51.785Z,7.00
2022-09-11T16:19:27.931Z,7.40
2022-09-11T16:22:00.978Z,7.00
2022-09-11T16:24:37.426Z,6.70
2022-09-11T16:27:10.949Z,7.50
2022-09-11T16:32:38.116Z,6.40
2022-09-11T16:35:13.475Z,7.70
2022-09-11T16:37:44.199Z,7.00
2022-09-11T16:40:15.033Z,7.20
2022-09-11T16:42:45.611Z,7.00
2022-09-11T16:45:16.124Z,6.20
2022-09-11T16:47:46.856Z,6.70
2022-09-11T16:50:17.783Z,6.90
2022-09-11T16:52:48.647Z,6.40
2022-09-11T16:55:20.349Z,7.00
2022-09-11T16:57:50.896Z,6.60
2022-09-11T17:00:21.737Z,7.00
2022-09-11T17:02:52.629Z,7.20
2022-09-11T17:05:25.192Z,6.40
2022-09-11T17:07:55.672Z,6.10
2022-09-11T17:10:29.078Z,6.60
2022-09-11T17:12:59.856Z,6.50
2022-09-11T17:15:30.949Z,7.00
2022-09-11T17:20:31.433Z,6.40
2022-09-11T17:23:02.074Z,6.50
2022-09-11T17:25:32.957Z,6.80
2022-09-11T17:28:03.840Z,7.10
2022-09-11T17:30:38.033Z,7.60
2022-09-11T17:33:09.256Z,6.90
2022-09-11T17:38:10.202Z,6.70
2022-09-11T17:40:41.568Z,6.80
2022-09-11T17:43:13.166Z,7.20
2022-09-11T17:45:44.052Z,7.40
2022-09-11T17:48:14.882Z,6.70
2022-09-11T17:50:45.253Z,7.40
2022-09-11T17:53:17.167Z,7.10
2022-09-11T17:55:48.003Z,7.10
2022-09-11T17:58:18.603Z,6.90
2022-09-11T18:00:49.520Z,7.20
2022-09-11T18:03:23.007Z,7.70
2022-09-11T18:05:53.652Z,7.40
2022-09-11T18:08:24.553Z,7.90
2022-09-11T18:10:59.262Z,8.20
2022-09-11T18:13:31.757Z,6.50
2022-09-11T18:16:06.521Z,7.60
2022-09-11T18:18:40.602Z,7.40
2022-09-11T18:21:12.542Z,7.10
2022-09-11T18:23:46.314Z,8.70
2022-09-11T18:26:25.701Z,8.00
2022-09-11T18:29:01.017Z,7.50
2022-09-11T18:31:32.819Z,7.50
2022-09-11T18:34:03.879Z,7.80
2022-09-11T18:36:34.547Z,8.50
2022-09-11T18:39:06.159Z,7.70
2022-09-11T18:41:37.208Z,7.00
2022-09-11T18:44:10.915Z,8.00
2022-09-11T18:46:41.575Z,8.30
2022-09-11T18:49:14.050Z,8.50
2022-09-11T18:51:44.973Z,8.00
2022-09-11T18:54:17.461Z,8.20
2022-09-11T18:56:49.223Z,8.10
2022-09-11T18:59:22.625Z,8.00
2022-09-11T19:01:53.851Z,8.20
2022-09-11T19:04:24.349Z,7.60
2022-09-11T19:06:55.053Z,7.80
2022-09-11T19:09:26.517Z,7.60
2022-09-11T19:11:57.894Z,8.10
2022-09-11T19:14:28.702Z,7.30
2022-09-11T19:17:00.300Z,8.90
2022-09-11T19:19:31.025Z,7.20
2022-09-11T19:22:01.537Z,7.90
2022-09-11T19:24:32.860Z,8.20
2022-09-11T19:29:32.451Z,8.20
2022-09-11T19:32:03.256Z,7.90
2022-09-11T19:34:38.541Z,8.10
2022-09-11T19:37:11.732Z,8.70
2022-09-11T19:39:42.665Z,7.70
2022-09-11T19:42:13.313Z,8.50
2022-09-11T19:44:44.452Z,8.80
2022-09-11T19:49:47.069Z,8.70
2022-09-11T19:52:18.111Z,8.20
2022-09-11T19:55:00.355Z,7.80
2022-09-11T19:57:31.833Z,8.30
2022-09-11T20:00:02.524Z,7.90
2022-09-11T20:02:35.890Z,8.50
2022-09-11T20:05:06.808Z,8.50
2022-09-11T20:07:38.865Z,8.10
2022-09-11T20:10:10.989Z,8.90
2022-09-11T20:12:41.886Z,8.10
2022-09-11T20:15:13.583Z,8.30
2022-09-11T20:17:44.920Z,7.70
2022-09-11T20:20:29.106Z,8.30
2022-09-11T20:23:05.454Z,8.40
2022-09-11T20:26:16.949Z,8.00
2022-09-11T20:29:13.755Z,8.10
2022-09-11T20:32:04.979Z,8.40
2022-09-11T20:34:41.104Z,8.10
2022-09-11T20:37:12.849Z,7.80
2022-09-11T20:39:51.007Z,9.20
2022-09-11T20:42:21.545Z,8.80
2022-09-11T20:44:52.138Z,8.80
2022-09-11T20:47:24.211Z,7.80
2022-09-11T20:49:56.037Z,8.10
2022-09-11T20:52:26.916Z,8.10
2022-09-11T20:54:58.103Z,8.80
2022-09-11T20:57:30.676Z,8.20
2022-09-11T21:00:01.474Z,8.70
2022-09-11T21:02:32.000Z,8.70
2022-09-11T21:05:06.635Z,8.60
2022-09-11T21:07:39.552Z,8.50
2022-09-11T21:10:13.676Z,7.80
2022-09-11T21:12:53.897Z,8.40
2022-09-11T21:15:25.263Z,7.90
2022-09-11T21:17:59.919Z,9.00
2022-09-11T21:20:35.804Z,8.40
2022-09-11T21:23:09.549Z,9.50
2022-09-11T21:25:43.811Z,9.60
2022-09-11T21:28:14.576Z,8.10
2022-09-11T21:30:46.468Z,8.80
2022-09-11T21:33:18.070Z,8.90
2022-09-11T21:36:01.317Z,10.10
2022-09-11T21:38:32.359Z,9.00
2022-09-11T21:41:08.184Z,9.10
2022-09-11T21:43:41.605Z,9.40
2022-09-11T21:46:14.669Z,9.60
2022-09-11T21:48:47.134Z,8.90
2022-09-11T21:51:20.913Z,8.50
2022-09-11T21:53:58.165Z,8.60
2022-09-11T21:56:32.577Z,9.50
2022-09-11T21:59:05.297Z,8.50
2022-09-11T22:01:37.272Z,8.90
2022-09-11T22:04:10.800Z,9.10
2022-09-11T22:06:44.314Z,8.70
2022-09-11T22:09:20.615Z,9.20
2022-09-11T22:11:59.201Z,9.50
2022-09-11T22:14:35.008Z,9.10
2022-09-11T22:17:11.189Z,8.70
2022-09-11T22:19:44.032Z,8.60
2022-09-11T22:22:19.377Z,7.80
2022-09-11T22:24:49.874Z,8.70
2022-09-11T22:27:24.054Z,8.20
2022-09-11T22:29:58.592Z,9.00
2022-09-11T22:32:29.075Z,8.80
2022-09-11T22:35:02.174Z,8.90
2022-09-11T22:37:35.875Z,8.10
2022-09-11T22:40:13.515Z,8.10
2022-09-11T22:42:58.044Z,8.60
2022-09-11T22:45:29.844Z,9.10
2022-09-11T22:48:02.813Z,9.50
2022-09-11T22:50:44.275Z,10.30
2022-09-11T22:53:15.131Z,10.10
2022-09-11T22:55:50.096Z,9.10
2022-09-11T22:58:21.609Z,9.80
2022-09-11T23:00:56.553Z,9.20
2022-09-11T23:03:27.210Z,9.20
2022-09-11T23:06:17.905Z,10.20
2022-09-11T23:08:49.962Z,9.30
2022-09-11T23:11:22.159Z,9.80
2022-09-11T23:13:53.691Z,9.10
2022-09-11T23:16:27.965Z,8.70
2022-09-11T23:19:11.512Z,8.80
2022-09-11T23:21:43.920Z,9.80
2022-09-11T23:24:17.797Z,8.80
2022-09-11T23:26:48.969Z,9.20
2022-09-11T23:29:20.048Z,9.70
2022-09-11T23:31:50.676Z,10.50
2022-09-11T23:34:23.394Z,9.30
2022-09-11T23:36:54.245Z,10.40
2022-09-11T23:39:25.139Z,9.80
2022-09-11T23:41:55.763Z,9.30
2022-09-11T23:44:26.425Z,9.90
2022-09-11T23:46:57.325Z,10.20
2022-09-11T23:49:31.227Z,10.40
2022-09-11T23:52:09.019Z,9.80
2022-09-11T23:54:39.895Z,10.00
2022-09-11T23:57:10.847Z,9.80
2022-09-11T23:59:41.808Z,9.90
